Terminal Aerodrome Forecast
Issued by NWS

Home | Current Version | Previous Version | Text Only | Print | Product List | Glossary On
Versions: 1 2 3 4 5 6 7 8 9 10 11 12 13
000
FTUS46 KOTX 230520
TAFMWH
TAF
KMWH 230520Z 2306/2406 VRB04KT P6SM SKC
     FM232000 23009G17KT P6SM FEW250
     FM240000 26014G23KT P6SM FEW250
     FM240400 29014KT P6SM FEW250=

USA.gov is the U.S. government's official web portal to all federal, state and local government web resources and services.